12 Hour 24 Hour 72 Hour 120 Hour 240 Hour

48 hour History

Graph times and dates are UTC
Temperature/Dew point Wind (MPH)
temperature and dew point graph wind speed and direction graph
 
Barometer (millibars) Rain (inches)
barometer graph rain graph
Hourly/Total since local midnight
Wind Distribution (Past 48 hours)
48 Hour Wind Compass Rose

 

Hourly Observations (past 48 hours)

Date Hour Temperature (°F) Humi-
dity

(%)
Wind
(mph)
Pressure Rain (in) Sun
(W/m2)
UV ET
(in)
Air 6 Hour Dew Alt
(in Hg.)
Sea
Level

(mb)
1 hr 3 hr 6 hr Day Rate
Max Min Day
Aug 15 18:00 81.4 71.1 71 Calm 29.86 1011.3 0.01 0.00 21 16.0 0.069
Aug 15 17:00 83.0 70.9 67 Calm 29.87 1011.6 0.01 0.00 40 16.0 0.068
Aug 15 16:00 82.4 70.8 68 Calm 29.87 1011.5 0.01 0.00 62 16.0 0.064
Aug 15 15:00 81.6 69.6 67 SSW 0 G 2 29.88 1011.8 0.01 0.00 81 16.0 0.062
Aug 15 14:00 82.2 83.8 68.9 69.7 66 E 0 G 2 29.88 1011.8 0.01 0.00 83 16.0 0.060
Aug 15 13:00 83.2 70.7 66 Calm 29.88 1012.0 0.01 0.00 281 16.0 0.056
Aug 15 12:00 83.4 71.3 67 S 0 G 1 29.88 1011.8 0.01 0.00 772 16.0 0.044
Aug 15 11:00 81.1 70.8 71 Calm 29.88 1011.7 0.01 0.00 712 16.0 0.025
Aug 15 10:00 75.8 72.3 89 Calm 29.87 1011.4 0.01 0.00 598 16.0 0.009
Aug 15 09:00 71.6 70.4 96 Calm 29.86 1011.3 0.01 0.00 84 16.0 0.004
Aug 15 08:00 68.9 68.9 66.9 67.7 96 Calm 29.85 1010.7 0.01 0.00 46 0.0 0.002
Aug 15 07:00 67.3 65.8 95 Calm 29.83 1010.3 0.01 0.00 21 0.0 0.001
Aug 15 06:00 67.3 65.8 95 Calm 29.82 1009.7 0.01 0.00 0 0.0 0.001
Aug 15 05:00 67.9 66.4 95 Calm 29.80 1009.2 0.01 0.00 0 0.0 0.001
Aug 15 04:00 68.4 66.6 94 Calm 29.80 1009.1 0.01 0.00 0 0.0 0.001
Aug 15 03:00 68.6 66.8 94 Calm 29.80 1009.1 0.01 0.00 0 0.0 0.001
Aug 15 02:00 68.9 74.4 68.9 66.8 93 Calm 29.80 1009.3 0.01 0.01 0.00 0 0.0 0.001
Aug 15 01:00 69.3 67.2 93 Calm 29.81 1009.5 0.01 0.00 0 0.0 0.001
Aug 15 00:00 69.6 67.2 92 Calm 29.81 1009.5 0.01 0.00 0 0.0 0.001
Aug 14 23:00 69.9 67.2 91 Calm 29.81 1009.5 0.01 0.01 0.00 0 0.0 0.001
Aug 14 22:00 70.6 67.2 89 Calm 29.81 1009.5 0.01 0.00 0 0.0 0.001
Aug 14 21:00 72.7 68.6 87 Calm 29.79 1008.9 0.01 0.01 0.00 0 0.0 0.001
Aug 14 20:00 74.4 79.2 74.4 69.3 84 Calm 29.80 1009.1 0.00 0.00 0 0.0 0.000
Aug 14 19:00 75.8 68.8 79 Calm 29.77 1008.2 0.00 0.00 5 0.0 0.000
Aug 14 18:00 76.8 69.8 79 Calm 29.77 1008.2 0.01 0.00 44 0.0 0.048
Aug 14 17:00 77.4 68.9 75 S 0 G 2 29.78 1008.5 0.01 0.00 39 0.0 0.047
Aug 14 16:00 78.5 68.7 72 Calm 29.77 1008.2 0.01 0.00 60 16.0 0.045
Aug 14 15:00 78.8 68.6 71 SW 0 G 3 29.79 1008.7 0.01 0.00 97 16.0 0.043
Aug 14 14:00 78.1 78.1 70.9 68.7 73 WSW 0 G 4 29.80 1009.3 0.01 0.00 65 16.0 0.041
Aug 14 13:00 77.7 69.9 77 S 0 G 2 29.82 1009.8 0.01 0.00 197 16.0 0.038
Aug 14 12:00 76.0 73.8 93 SW 0 G 1 29.84 1010.6 0.01 0.00 793 16.0 0.028
Aug 14 11:00 75.4 74.8 98 SSW 0 G 3 29.85 1010.8 0.01 0.00 649 13.3 0.017
Aug 14 10:00 73.7 73.4 99 Calm 29.85 1010.8 0.01 0.00 564 14.3 0.005
Aug 14 09:00 72.1 71.8 99 SW 0 G 1 29.85 1010.8 0.01 0.00 56 14.7 0.002
Aug 14 08:00 70.9 70.9 69.9 70.6 99 Calm 29.85 1011.0 0.01 0.00 53 0.0 0.001
Aug 14 07:00 70.3 70.0 99 SW 0 G 2 29.86 1011.2 0.01 0.00 7 0.0 0.000
Aug 14 06:00 70.1 69.8 99 Calm 29.84 1010.7 0.01 0.00 0 0.0 0.000
Aug 14 05:00 70.1 69.8 99 Calm 29.83 1010.3 0.01 0.00 0 0.0 0.000
Aug 14 04:00 70.8 70.5 99 Calm 29.83 1010.3 0.01 0.00 0 0.0 0.000
Aug 14 03:00 70.9 70.6 99 Calm 29.85 1010.8 0.01 0.00 0 0.0 0.000
Aug 14 02:00 70.9 71.3 70.9 70.6 99 Calm 29.86 1011.3 0.01 0.01 0.00 0 0.0 0.000
Aug 14 01:00 71.1 70.8 99 Calm 29.88 1011.7 0.01 0.00 0 0.0 0.000
Aug 14 00:00 71.3 71.0 99 Calm 29.86 1011.4 0.27 0.00 0 0.0 0.000
Aug 13 23:00 71.1 70.8 99 Calm 29.88 1011.9 0.01 0.01 0.00 0 0.0 0.000
Aug 13 22:00 70.9 70.6 99 Calm 29.86 1011.3 0.01 0.01 0.00 0 0.0 0.000
Aug 13 21:00 70.9 70.6 99 ENE 0 G 2 29.86 1011.3 0.00 0.00 0 0.0 0.000
Aug 13 20:00 70.9 71.8 70.9 70.6 99 Calm 29.86 1011.2 0.01 0.03 0.00 0.00 0 0.0 0.000
Aug 13 19:00 71.1 70.8 99 Calm 29.86 1011.2 0.00 0.00 0 0.0 0.000

0.0038